sensor_id;sensor_type;location;lat;lon;timestamp;P1;durP1;ratioP1;P2;durP2;ratioP2
24859;SDS011;12936;52.006;4.350;2022-09-09T00:01:37;7.30;;;3.80;;
24859;SDS011;12936;52.006;4.350;2022-09-09T00:04:15;9.63;;;3.63;;
24859;SDS011;12936;52.006;4.350;2022-09-09T00:06:45;7.50;;;3.78;;
24859;SDS011;12936;52.006;4.350;2022-09-09T00:09:15;7.03;;;3.58;;
24859;SDS011;12936;52.006;4.350;2022-09-09T00:11:45;5.88;;;3.47;;
24859;SDS011;12936;52.006;4.350;2022-09-09T00:14:18;6.43;;;3.50;;
24859;SDS011;12936;52.006;4.350;2022-09-09T00:16:50;7.97;;;3.70;;
24859;SDS011;12936;52.006;4.350;2022-09-09T00:19:22;6.32;;;3.67;;
24859;SDS011;12936;52.006;4.350;2022-09-09T00:21:53;7.13;;;3.50;;
24859;SDS011;12936;52.006;4.350;2022-09-09T00:24:26;8.32;;;4.55;;
24859;SDS011;12936;52.006;4.350;2022-09-09T00:26:56;5.93;;;3.88;;
24859;SDS011;12936;52.006;4.350;2022-09-09T00:29:28;9.00;;;4.10;;
24859;SDS011;12936;52.006;4.350;2022-09-09T00:32:05;7.07;;;4.03;;
24859;SDS011;12936;52.006;4.350;2022-09-09T00:34:41;7.72;;;3.40;;
24859;SDS011;12936;52.006;4.350;2022-09-09T00:37:11;7.47;;;4.22;;
24859;SDS011;12936;52.006;4.350;2022-09-09T00:39:41;8.07;;;4.15;;
24859;SDS011;12936;52.006;4.350;2022-09-09T00:42:13;9.07;;;4.30;;
24859;SDS011;12936;52.006;4.350;2022-09-09T00:44:46;11.80;;;4.25;;
24859;SDS011;12936;52.006;4.350;2022-09-09T00:50:13;7.57;;;4.22;;
24859;SDS011;12936;52.006;4.350;2022-09-09T00:52:43;6.22;;;3.90;;
24859;SDS011;12936;52.006;4.350;2022-09-09T00:55:16;7.60;;;4.78;;
24859;SDS011;12936;52.006;4.350;2022-09-09T00:57:45;8.15;;;4.68;;
24859;SDS011;12936;52.006;4.350;2022-09-09T01:00:17;6.38;;;4.10;;
24859;SDS011;12936;52.006;4.350;2022-09-09T01:02:49;9.30;;;3.92;;
24859;SDS011;12936;52.006;4.350;2022-09-09T01:05:24;8.55;;;3.45;;
24859;SDS011;12936;52.006;4.350;2022-09-09T01:07:53;7.60;;;3.78;;
24859;SDS011;12936;52.006;4.350;2022-09-09T01:10:26;8.60;;;4.18;;
24859;SDS011;12936;52.006;4.350;2022-09-09T01:12:58;7.57;;;3.33;;
24859;SDS011;12936;52.006;4.350;2022-09-09T01:15:31;7.45;;;3.40;;
24859;SDS011;12936;52.006;4.350;2022-09-09T01:18:02;7.00;;;3.47;;
24859;SDS011;12936;52.006;4.350;2022-09-09T01:20:36;8.75;;;3.13;;
24859;SDS011;12936;52.006;4.350;2022-09-09T01:23:16;8.48;;;3.38;;
24859;SDS011;12936;52.006;4.350;2022-09-09T01:26:03;5.55;;;2.80;;
24859;SDS011;12936;52.006;4.350;2022-09-09T01:28:32;4.95;;;2.95;;
24859;SDS011;12936;52.006;4.350;2022-09-09T01:31:03;5.95;;;2.90;;
24859;SDS011;12936;52.006;4.350;2022-09-09T01:33:32;7.78;;;3.13;;
24859;SDS011;12936;52.006;4.350;2022-09-09T01:36:02;7.32;;;3.00;;
24859;SDS011;12936;52.006;4.350;2022-09-09T01:38:33;7.28;;;2.67;;
24859;SDS011;12936;52.006;4.350;2022-09-09T01:41:04;10.48;;;3.05;;
24859;SDS011;12936;52.006;4.350;2022-09-09T01:43:32;6.25;;;2.55;;
24859;SDS011;12936;52.006;4.350;2022-09-09T01:46:01;8.20;;;2.58;;
24859;SDS011;12936;52.006;4.350;2022-09-09T01:48:29;7.85;;;2.47;;
24859;SDS011;12936;52.006;4.350;2022-09-09T01:50:58;6.72;;;2.30;;
24859;SDS011;12936;52.006;4.350;2022-09-09T01:53:26;8.55;;;2.50;;
24859;SDS011;12936;52.006;4.350;2022-09-09T01:55:57;6.03;;;1.92;;
24859;SDS011;12936;52.006;4.350;2022-09-09T01:58:31;4.90;;;1.70;;
24859;SDS011;12936;52.006;4.350;2022-09-09T02:01:02;5.00;;;1.40;;
24859;SDS011;12936;52.006;4.350;2022-09-09T02:03:34;5.78;;;1.50;;
24859;SDS011;12936;52.006;4.350;2022-09-09T02:06:05;5.30;;;1.50;;
24859;SDS011;12936;52.006;4.350;2022-09-09T02:08:37;6.00;;;1.60;;
24859;SDS011;12936;52.006;4.350;2022-09-09T02:11:09;8.90;;;1.33;;
24859;SDS011;12936;52.006;4.350;2022-09-09T02:13:40;6.35;;;1.42;;
24859;SDS011;12936;52.006;4.350;2022-09-09T02:16:12;8.90;;;1.48;;
24859;SDS011;12936;52.006;4.350;2022-09-09T02:18:43;6.18;;;1.63;;
24859;SDS011;12936;52.006;4.350;2022-09-09T02:21:13;2.65;;;1.23;;
24859;SDS011;12936;52.006;4.350;2022-09-09T02:23:41;4.13;;;1.30;;
24859;SDS011;12936;52.006;4.350;2022-09-09T02:26:11;4.57;;;1.65;;
24859;SDS011;12936;52.006;4.350;2022-09-09T02:28:47;4.88;;;1.30;;
24859;SDS011;12936;52.006;4.350;2022-09-09T02:31:17;6.00;;;1.65;;
24859;SDS011;12936;52.006;4.350;2022-09-09T02:33:51;5.85;;;1.70;;
24859;SDS011;12936;52.006;4.350;2022-09-09T02:36:20;4.93;;;1.50;;
24859;SDS011;12936;52.006;4.350;2022-09-09T02:38:50;6.70;;;1.67;;
24859;SDS011;12936;52.006;4.350;2022-09-09T02:41:20;5.57;;;1.13;;
24859;SDS011;12936;52.006;4.350;2022-09-09T02:43:51;4.93;;;1.40;;
24859;SDS011;12936;52.006;4.350;2022-09-09T02:46:23;4.38;;;1.35;;
24859;SDS011;12936;52.006;4.350;2022-09-09T02:48:56;5.72;;;1.30;;
24859;SDS011;12936;52.006;4.350;2022-09-09T02:51:29;7.65;;;1.40;;
24859;SDS011;12936;52.006;4.350;2022-09-09T02:53:59;5.28;;;1.65;;
24859;SDS011;12936;52.006;4.350;2022-09-09T02:56:32;3.25;;;1.38;;
24859;SDS011;12936;52.006;4.350;2022-09-09T02:59:04;3.45;;;1.38;;
24859;SDS011;12936;52.006;4.350;2022-09-09T03:01:32;3.60;;;1.40;;
24859;SDS011;12936;52.006;4.350;2022-09-09T03:04:02;3.42;;;1.50;;
24859;SDS011;12936;52.006;4.350;2022-09-09T03:06:31;5.97;;;1.30;;
24859;SDS011;12936;52.006;4.350;2022-09-09T03:08:59;3.80;;;1.10;;
24859;SDS011;12936;52.006;4.350;2022-09-09T03:11:29;8.27;;;1.40;;
24859;SDS011;12936;52.006;4.350;2022-09-09T03:13:57;5.43;;;1.40;;
24859;SDS011;12936;52.006;4.350;2022-09-09T03:16:27;7.85;;;1.48;;
24859;SDS011;12936;52.006;4.350;2022-09-09T03:18:55;6.30;;;1.20;;
24859;SDS011;12936;52.006;4.350;2022-09-09T03:21:23;5.85;;;1.30;;
24859;SDS011;12936;52.006;4.350;2022-09-09T03:23:52;9.65;;;2.08;;
24859;SDS011;12936;52.006;4.350;2022-09-09T03:26:20;5.25;;;1.40;;
24859;SDS011;12936;52.006;4.350;2022-09-09T03:28:49;5.75;;;1.85;;
24859;SDS011;12936;52.006;4.350;2022-09-09T03:31:18;7.20;;;1.63;;
24859;SDS011;12936;52.006;4.350;2022-09-09T03:33:48;4.65;;;1.60;;
24859;SDS011;12936;52.006;4.350;2022-09-09T03:36:17;7.82;;;1.48;;
24859;SDS011;12936;52.006;4.350;2022-09-09T03:38:45;6.95;;;1.50;;
24859;SDS011;12936;52.006;4.350;2022-09-09T03:41:13;6.47;;;1.70;;
24859;SDS011;12936;52.006;4.350;2022-09-09T03:43:42;6.97;;;1.60;;
24859;SDS011;12936;52.006;4.350;2022-09-09T03:46:10;4.50;;;1.40;;
24859;SDS011;12936;52.006;4.350;2022-09-09T03:48:39;7.97;;;1.45;;
24859;SDS011;12936;52.006;4.350;2022-09-09T03:51:08;5.57;;;1.42;;
24859;SDS011;12936;52.006;4.350;2022-09-09T03:53:37;7.28;;;1.77;;
24859;SDS011;12936;52.006;4.350;2022-09-09T03:56:06;5.05;;;1.35;;
24859;SDS011;12936;52.006;4.350;2022-09-09T03:58:34;5.32;;;1.67;;
24859;SDS011;12936;52.006;4.350;2022-09-09T04:01:03;6.43;;;1.17;;
24859;SDS011;12936;52.006;4.350;2022-09-09T04:03:32;7.03;;;1.50;;
24859;SDS011;12936;52.006;4.350;2022-09-09T04:06:01;6.00;;;1.45;;
24859;SDS011;12936;52.006;4.350;2022-09-09T04:08:31;4.93;;;1.80;;
24859;SDS011;12936;52.006;4.350;2022-09-09T04:11:00;6.65;;;1.50;;
24859;SDS011;12936;52.006;4.350;2022-09-09T04:13:31;5.25;;;1.27;;
24859;SDS011;12936;52.006;4.350;2022-09-09T04:16:01;5.38;;;1.58;;
24859;SDS011;12936;52.006;4.350;2022-09-09T04:18:30;6.70;;;1.88;;
24859;SDS011;12936;52.006;4.350;2022-09-09T04:20:59;6.03;;;1.35;;
24859;SDS011;12936;52.006;4.350;2022-09-09T04:23:28;3.65;;;1.55;;
24859;SDS011;12936;52.006;4.350;2022-09-09T04:25:58;5.35;;;1.67;;
24859;SDS011;12936;52.006;4.350;2022-09-09T04:28:28;5.50;;;1.50;;
24859;SDS011;12936;52.006;4.350;2022-09-09T04:30:56;6.72;;;1.63;;
24859;SDS011;12936;52.006;4.350;2022-09-09T04:33:27;6.55;;;1.75;;
24859;SDS011;12936;52.006;4.350;2022-09-09T04:35:57;4.90;;;1.75;;
24859;SDS011;12936;52.006;4.350;2022-09-09T04:38:25;5.88;;;1.75;;
24859;SDS011;12936;52.006;4.350;2022-09-09T04:40:54;5.68;;;1.67;;
24859;SDS011;12936;52.006;4.350;2022-09-09T04:43:24;5.28;;;1.50;;
24859;SDS011;12936;52.006;4.350;2022-09-09T04:45:53;4.95;;;1.70;;
24859;SDS011;12936;52.006;4.350;2022-09-09T04:48:22;6.05;;;1.80;;
24859;SDS011;12936;52.006;4.350;2022-09-09T04:50:55;3.90;;;1.65;;
24859;SDS011;12936;52.006;4.350;2022-09-09T04:53:23;7.72;;;1.75;;
24859;SDS011;12936;52.006;4.350;2022-09-09T04:55:52;6.45;;;1.88;;
24859;SDS011;12936;52.006;4.350;2022-09-09T04:58:21;9.50;;;1.92;;
24859;SDS011;12936;52.006;4.350;2022-09-09T05:00:51;8.43;;;2.33;;
24859;SDS011;12936;52.006;4.350;2022-09-09T05:03:19;6.47;;;1.95;;
24859;SDS011;12936;52.006;4.350;2022-09-09T05:05:47;4.53;;;1.70;;
24859;SDS011;12936;52.006;4.350;2022-09-09T05:08:16;6.97;;;2.15;;
24859;SDS011;12936;52.006;4.350;2022-09-09T05:10:44;4.22;;;1.80;;
24859;SDS011;12936;52.006;4.350;2022-09-09T05:13:12;6.68;;;1.85;;
24859;SDS011;12936;52.006;4.350;2022-09-09T05:15:40;8.68;;;2.40;;
24859;SDS011;12936;52.006;4.350;2022-09-09T05:18:10;7.07;;;2.10;;
24859;SDS011;12936;52.006;4.350;2022-09-09T05:20:38;10.18;;;1.98;;
24859;SDS011;12936;52.006;4.350;2022-09-09T05:23:08;4.57;;;1.88;;
24859;SDS011;12936;52.006;4.350;2022-09-09T05:25:37;7.70;;;1.95;;
24859;SDS011;12936;52.006;4.350;2022-09-09T05:28:06;7.40;;;2.10;;
24859;SDS011;12936;52.006;4.350;2022-09-09T05:30:34;6.63;;;2.22;;
24859;SDS011;12936;52.006;4.350;2022-09-09T05:33:03;8.82;;;2.38;;
24859;SDS011;12936;52.006;4.350;2022-09-09T05:35:33;8.35;;;2.42;;
24859;SDS011;12936;52.006;4.350;2022-09-09T05:38:02;9.68;;;2.40;;
24859;SDS011;12936;52.006;4.350;2022-09-09T05:40:30;7.22;;;2.20;;
24859;SDS011;12936;52.006;4.350;2022-09-09T05:42:59;13.60;;;2.50;;
24859;SDS011;12936;52.006;4.350;2022-09-09T05:45:29;8.32;;;2.42;;
24859;SDS011;12936;52.006;4.350;2022-09-09T05:47:57;6.55;;;1.95;;
24859;SDS011;12936;52.006;4.350;2022-09-09T05:50:26;6.18;;;2.05;;
24859;SDS011;12936;52.006;4.350;2022-09-09T05:52:58;8.57;;;2.20;;
24859;SDS011;12936;52.006;4.350;2022-09-09T05:55:26;8.05;;;2.22;;
24859;SDS011;12936;52.006;4.350;2022-09-09T05:57:54;8.10;;;1.80;;
24859;SDS011;12936;52.006;4.350;2022-09-09T06:00:23;7.97;;;2.15;;
24859;SDS011;12936;52.006;4.350;2022-09-09T06:02:51;9.65;;;2.10;;
24859;SDS011;12936;52.006;4.350;2022-09-09T06:05:20;7.68;;;1.85;;
24859;SDS011;12936;52.006;4.350;2022-09-09T06:07:51;7.53;;;2.20;;
24859;SDS011;12936;52.006;4.350;2022-09-09T06:10:21;8.25;;;2.17;;
24859;SDS011;12936;52.006;4.350;2022-09-09T06:12:52;7.07;;;2.30;;
24859;SDS011;12936;52.006;4.350;2022-09-09T06:15:20;9.23;;;2.40;;
24859;SDS011;12936;52.006;4.350;2022-09-09T06:17:53;10.18;;;2.22;;
24859;SDS011;12936;52.006;4.350;2022-09-09T06:20:22;10.98;;;2.58;;
24859;SDS011;12936;52.006;4.350;2022-09-09T06:22:50;11.57;;;2.92;;
24859;SDS011;12936;52.006;4.350;2022-09-09T06:25:19;12.52;;;3.13;;
24859;SDS011;12936;52.006;4.350;2022-09-09T06:27:49;8.43;;;2.35;;
24859;SDS011;12936;52.006;4.350;2022-09-09T06:30:18;8.77;;;2.30;;
24859;SDS011;12936;52.006;4.350;2022-09-09T06:32:46;10.02;;;2.80;;
24859;SDS011;12936;52.006;4.350;2022-09-09T06:35:16;9.85;;;2.75;;
24859;SDS011;12936;52.006;4.350;2022-09-09T06:37:44;10.45;;;3.05;;
24859;SDS011;12936;52.006;4.350;2022-09-09T06:40:15;11.35;;;3.28;;
24859;SDS011;12936;52.006;4.350;2022-09-09T06:42:43;6.15;;;2.60;;
24859;SDS011;12936;52.006;4.350;2022-09-09T06:45:13;7.85;;;2.97;;
24859;SDS011;12936;52.006;4.350;2022-09-09T06:47:41;8.57;;;2.83;;
24859;SDS011;12936;52.006;4.350;2022-09-09T06:50:10;10.93;;;2.92;;
24859;SDS011;12936;52.006;4.350;2022-09-09T06:52:38;8.77;;;2.78;;
24859;SDS011;12936;52.006;4.350;2022-09-09T06:55:06;7.72;;;2.85;;
24859;SDS011;12936;52.006;4.350;2022-09-09T06:57:35;10.20;;;2.80;;
24859;SDS011;12936;52.006;4.350;2022-09-09T07:00:04;7.47;;;2.80;;
24859;SDS011;12936;52.006;4.350;2022-09-09T07:02:33;8.35;;;2.97;;
24859;SDS011;12936;52.006;4.350;2022-09-09T07:05:06;10.25;;;2.83;;
24859;SDS011;12936;52.006;4.350;2022-09-09T07:07:34;10.85;;;2.83;;
24859;SDS011;12936;52.006;4.350;2022-09-09T07:10:04;11.18;;;3.30;;
24859;SDS011;12936;52.006;4.350;2022-09-09T07:12:33;9.55;;;3.22;;
24859;SDS011;12936;52.006;4.350;2022-09-09T07:15:02;8.57;;;3.22;;
24859;SDS011;12936;52.006;4.350;2022-09-09T07:17:31;9.85;;;3.10;;
24859;SDS011;12936;52.006;4.350;2022-09-09T07:20:00;10.10;;;3.53;;
24859;SDS011;12936;52.006;4.350;2022-09-09T07:22:30;11.88;;;3.20;;
24859;SDS011;12936;52.006;4.350;2022-09-09T07:25:02;8.52;;;2.70;;
24859;SDS011;12936;52.006;4.350;2022-09-09T07:27:30;11.25;;;2.83;;
24859;SDS011;12936;52.006;4.350;2022-09-09T07:29:59;9.63;;;3.28;;
24859;SDS011;12936;52.006;4.350;2022-09-09T07:32:28;9.25;;;2.97;;
24859;SDS011;12936;52.006;4.350;2022-09-09T07:34:57;7.90;;;2.88;;
24859;SDS011;12936;52.006;4.350;2022-09-09T07:37:31;9.50;;;3.13;;
24859;SDS011;12936;52.006;4.350;2022-09-09T07:40:01;12.38;;;3.00;;
24859;SDS011;12936;52.006;4.350;2022-09-09T07:42:31;9.68;;;2.67;;
24859;SDS011;12936;52.006;4.350;2022-09-09T07:44:59;11.65;;;2.85;;
24859;SDS011;12936;52.006;4.350;2022-09-09T07:47:27;7.20;;;2.63;;
24859;SDS011;12936;52.006;4.350;2022-09-09T07:49:56;8.50;;;3.15;;
24859;SDS011;12936;52.006;4.350;2022-09-09T07:52:25;8.18;;;2.60;;
24859;SDS011;12936;52.006;4.350;2022-09-09T07:54:55;4.28;;;2.50;;
24859;SDS011;12936;52.006;4.350;2022-09-09T07:57:23;8.32;;;2.63;;
24859;SDS011;12936;52.006;4.350;2022-09-09T07:59:52;10.05;;;2.70;;
24859;SDS011;12936;52.006;4.350;2022-09-09T08:02:20;12.18;;;2.58;;
24859;SDS011;12936;52.006;4.350;2022-09-09T08:04:49;6.68;;;2.58;;
24859;SDS011;12936;52.006;4.350;2022-09-09T08:07:17;10.48;;;2.42;;
24859;SDS011;12936;52.006;4.350;2022-09-09T08:09:47;8.75;;;2.60;;
24859;SDS011;12936;52.006;4.350;2022-09-09T08:12:17;8.98;;;2.50;;
24859;SDS011;12936;52.006;4.350;2022-09-09T08:14:45;10.30;;;2.67;;
24859;SDS011;12936;52.006;4.350;2022-09-09T08:17:14;7.80;;;2.25;;
24859;SDS011;12936;52.006;4.350;2022-09-09T08:19:43;6.00;;;2.30;;
24859;SDS011;12936;52.006;4.350;2022-09-09T08:22:11;10.20;;;2.80;;
24859;SDS011;12936;52.006;4.350;2022-09-09T08:24:39;12.48;;;2.60;;
24859;SDS011;12936;52.006;4.350;2022-09-09T08:27:08;10.73;;;2.38;;
24859;SDS011;12936;52.006;4.350;2022-09-09T08:29:38;8.00;;;2.35;;
24859;SDS011;12936;52.006;4.350;2022-09-09T08:32:06;7.95;;;2.20;;
24859;SDS011;12936;52.006;4.350;2022-09-09T08:34:34;8.60;;;2.47;;
24859;SDS011;12936;52.006;4.350;2022-09-09T08:37:06;7.82;;;2.13;;
24859;SDS011;12936;52.006;4.350;2022-09-09T08:39:35;5.10;;;2.13;;
24859;SDS011;12936;52.006;4.350;2022-09-09T08:42:09;6.45;;;2.00;;
24859;SDS011;12936;52.006;4.350;2022-09-09T08:44:45;10.00;;;2.60;;
24859;SDS011;12936;52.006;4.350;2022-09-09T08:47:19;9.98;;;2.08;;
24859;SDS011;12936;52.006;4.350;2022-09-09T08:50:02;10.55;;;2.35;;
24859;SDS011;12936;52.006;4.350;2022-09-09T08:52:36;6.15;;;2.05;;
24859;SDS011;12936;52.006;4.350;2022-09-09T08:55:11;10.18;;;2.05;;
24859;SDS011;12936;52.006;4.350;2022-09-09T08:57:41;5.95;;;1.90;;
24859;SDS011;12936;52.006;4.350;2022-09-09T09:00:13;11.32;;;2.42;;
24859;SDS011;12936;52.006;4.350;2022-09-09T09:02:42;9.23;;;2.30;;
24859;SDS011;12936;52.006;4.350;2022-09-09T09:05:15;12.48;;;2.72;;
24859;SDS011;12936;52.006;4.350;2022-09-09T09:07:54;8.90;;;2.10;;
24859;SDS011;12936;52.006;4.350;2022-09-09T09:10:29;11.00;;;2.42;;
24859;SDS011;12936;52.006;4.350;2022-09-09T09:13:10;7.60;;;2.20;;
24859;SDS011;12936;52.006;4.350;2022-09-09T09:15:41;9.02;;;2.28;;
24859;SDS011;12936;52.006;4.350;2022-09-09T09:18:10;7.38;;;1.98;;
24859;SDS011;12936;52.006;4.350;2022-09-09T09:20:42;9.02;;;2.20;;
24859;SDS011;12936;52.006;4.350;2022-09-09T09:23:13;5.07;;;2.10;;
24859;SDS011;12936;52.006;4.350;2022-09-09T09:25:44;6.80;;;1.70;;
24859;SDS011;12936;52.006;4.350;2022-09-09T09:28:13;14.45;;;3.20;;
24859;SDS011;12936;52.006;4.350;2022-09-09T09:30:48;10.68;;;2.50;;
24859;SDS011;12936;52.006;4.350;2022-09-09T09:33:20;8.82;;;2.40;;
24859;SDS011;12936;52.006;4.350;2022-09-09T09:35:50;7.93;;;2.08;;
24859;SDS011;12936;52.006;4.350;2022-09-09T09:38:20;10.10;;;2.38;;
24859;SDS011;12936;52.006;4.350;2022-09-09T09:41:08;5.72;;;1.73;;
24859;SDS011;12936;52.006;4.350;2022-09-09T09:43:39;6.70;;;2.03;;
24859;SDS011;12936;52.006;4.350;2022-09-09T09:46:19;9.40;;;2.17;;
24859;SDS011;12936;52.006;4.350;2022-09-09T09:48:56;7.88;;;2.25;;
24859;SDS011;12936;52.006;4.350;2022-09-09T09:51:24;6.80;;;3.15;;
24859;SDS011;12936;52.006;4.350;2022-09-09T09:53:53;8.40;;;2.22;;
24859;SDS011;12936;52.006;4.350;2022-09-09T09:56:28;8.63;;;2.58;;
24859;SDS011;12936;52.006;4.350;2022-09-09T09:58:56;6.25;;;2.03;;
24859;SDS011;12936;52.006;4.350;2022-09-09T10:01:27;5.68;;;2.08;;
24859;SDS011;12936;52.006;4.350;2022-09-09T10:03:58;7.63;;;2.38;;
24859;SDS011;12936;52.006;4.350;2022-09-09T10:06:31;5.88;;;1.77;;
24859;SDS011;12936;52.006;4.350;2022-09-09T10:09:00;6.25;;;2.08;;
24859;SDS011;12936;52.006;4.350;2022-09-09T10:11:33;4.72;;;1.70;;
24859;SDS011;12936;52.006;4.350;2022-09-09T10:14:05;5.70;;;2.42;;
24859;SDS011;12936;52.006;4.350;2022-09-09T10:16:40;7.03;;;2.17;;
24859;SDS011;12936;52.006;4.350;2022-09-09T10:19:13;7.50;;;2.30;;
24859;SDS011;12936;52.006;4.350;2022-09-09T10:21:48;6.32;;;2.60;;
24859;SDS011;12936;52.006;4.350;2022-09-09T10:24:37;7.63;;;2.20;;
24859;SDS011;12936;52.006;4.350;2022-09-09T10:27:11;4.22;;;2.10;;
24859;SDS011;12936;52.006;4.350;2022-09-09T10:29:47;5.53;;;2.17;;
24859;SDS011;12936;52.006;4.350;2022-09-09T10:32:31;6.70;;;2.08;;
24859;SDS011;12936;52.006;4.350;2022-09-09T10:35:02;12.13;;;2.30;;
24859;SDS011;12936;52.006;4.350;2022-09-09T10:37:37;6.53;;;2.30;;
24859;SDS011;12936;52.006;4.350;2022-09-09T10:40:15;6.00;;;2.20;;
24859;SDS011;12936;52.006;4.350;2022-09-09T10:42:49;7.70;;;2.30;;
24859;SDS011;12936;52.006;4.350;2022-09-09T10:45:18;6.68;;;2.20;;
24859;SDS011;12936;52.006;4.350;2022-09-09T10:47:59;7.22;;;2.30;;
24859;SDS011;12936;52.006;4.350;2022-09-09T10:50:38;9.55;;;2.75;;
24859;SDS011;12936;52.006;4.350;2022-09-09T10:53:30;8.75;;;2.17;;
24859;SDS011;12936;52.006;4.350;2022-09-09T10:56:01;7.20;;;2.38;;
24859;SDS011;12936;52.006;4.350;2022-09-09T10:58:34;10.48;;;2.80;;
24859;SDS011;12936;52.006;4.350;2022-09-09T11:01:07;6.50;;;2.42;;
24859;SDS011;12936;52.006;4.350;2022-09-09T11:03:38;7.43;;;2.47;;
24859;SDS011;12936;52.006;4.350;2022-09-09T11:06:09;10.63;;;2.75;;
24859;SDS011;12936;52.006;4.350;2022-09-09T11:08:41;8.20;;;2.42;;
24859;SDS011;12936;52.006;4.350;2022-09-09T11:11:12;3.63;;;2.40;;
24859;SDS011;12936;52.006;4.350;2022-09-09T11:13:44;6.60;;;2.40;;
24859;SDS011;12936;52.006;4.350;2022-09-09T11:16:16;7.45;;;2.40;;
24859;SDS011;12936;52.006;4.350;2022-09-09T11:18:47;9.02;;;2.40;;
24859;SDS011;12936;52.006;4.350;2022-09-09T11:21:17;8.50;;;2.50;;
24859;SDS011;12936;52.006;4.350;2022-09-09T11:23:49;4.70;;;2.45;;
24859;SDS011;12936;52.006;4.350;2022-09-09T11:26:20;7.38;;;2.72;;
24859;SDS011;12936;52.006;4.350;2022-09-09T11:28:53;9.13;;;2.92;;
24859;SDS011;12936;52.006;4.350;2022-09-09T11:31:34;8.23;;;2.95;;
24859;SDS011;12936;52.006;4.350;2022-09-09T11:34:12;8.80;;;2.20;;
24859;SDS011;12936;52.006;4.350;2022-09-09T11:36:54;8.48;;;2.78;;
24859;SDS011;12936;52.006;4.350;2022-09-09T11:39:36;5.13;;;2.60;;
24859;SDS011;12936;52.006;4.350;2022-09-09T11:42:07;5.63;;;2.30;;
24859;SDS011;12936;52.006;4.350;2022-09-09T11:44:36;6.10;;;2.47;;
24859;SDS011;12936;52.006;4.350;2022-09-09T11:47:15;7.72;;;3.03;;
24859;SDS011;12936;52.006;4.350;2022-09-09T11:49:45;8.48;;;3.00;;
24859;SDS011;12936;52.006;4.350;2022-09-09T11:52:20;7.38;;;2.53;;
24859;SDS011;12936;52.006;4.350;2022-09-09T11:54:49;6.70;;;2.50;;
24859;SDS011;12936;52.006;4.350;2022-09-09T11:57:22;4.35;;;2.28;;
24859;SDS011;12936;52.006;4.350;2022-09-09T11:59:52;5.25;;;2.30;;
24859;SDS011;12936;52.006;4.350;2022-09-09T12:02:22;6.57;;;2.10;;
24859;SDS011;12936;52.006;4.350;2022-09-09T12:04:57;4.70;;;2.03;;
24859;SDS011;12936;52.006;4.350;2022-09-09T12:07:30;8.95;;;2.25;;
24859;SDS011;12936;52.006;4.350;2022-09-09T12:10:02;7.88;;;2.20;;
24859;SDS011;12936;52.006;4.350;2022-09-09T12:12:32;5.30;;;2.00;;
24859;SDS011;12936;52.006;4.350;2022-09-09T12:15:19;3.80;;;2.00;;
24859;SDS011;12936;52.006;4.350;2022-09-09T12:17:48;7.45;;;2.13;;
24859;SDS011;12936;52.006;4.350;2022-09-09T12:20:19;5.38;;;2.10;;
24859;SDS011;12936;52.006;4.350;2022-09-09T12:25:43;5.13;;;1.80;;
24859;SDS011;12936;52.006;4.350;2022-09-09T12:28:15;4.00;;;1.77;;
24859;SDS011;12936;52.006;4.350;2022-09-09T12:30:45;6.90;;;2.38;;
24859;SDS011;12936;52.006;4.350;2022-09-09T12:33:17;5.18;;;1.65;;
24859;SDS011;12936;52.006;4.350;2022-09-09T12:35:47;8.25;;;1.70;;
24859;SDS011;12936;52.006;4.350;2022-09-09T12:38:18;5.50;;;2.08;;
24859;SDS011;12936;52.006;4.350;2022-09-09T12:40:53;3.83;;;1.48;;
24859;SDS011;12936;52.006;4.350;2022-09-09T12:43:24;7.30;;;1.63;;
24859;SDS011;12936;52.006;4.350;2022-09-09T12:45:53;5.03;;;1.35;;
24859;SDS011;12936;52.006;4.350;2022-09-09T12:48:26;3.17;;;1.40;;
24859;SDS011;12936;52.006;4.350;2022-09-09T12:50:58;5.15;;;1.30;;
24859;SDS011;12936;52.006;4.350;2022-09-09T12:53:28;4.57;;;1.35;;
24859;SDS011;12936;52.006;4.350;2022-09-09T12:55:58;2.38;;;1.15;;
24859;SDS011;12936;52.006;4.350;2022-09-09T12:58:28;2.95;;;1.40;;
24859;SDS011;12936;52.006;4.350;2022-09-09T13:00:59;3.13;;;1.15;;
24859;SDS011;12936;52.006;4.350;2022-09-09T13:03:31;5.68;;;1.75;;
24859;SDS011;12936;52.006;4.350;2022-09-09T13:06:11;3.30;;;1.10;;
24859;SDS011;12936;52.006;4.350;2022-09-09T13:08:40;5.00;;;1.25;;
24859;SDS011;12936;52.006;4.350;2022-09-09T13:11:10;3.13;;;1.20;;
24859;SDS011;12936;52.006;4.350;2022-09-09T13:13:41;4.15;;;1.20;;
24859;SDS011;12936;52.006;4.350;2022-09-09T13:16:18;4.70;;;1.60;;
24859;SDS011;12936;52.006;4.350;2022-09-09T13:18:47;3.42;;;0.98;;
24859;SDS011;12936;52.006;4.350;2022-09-09T13:21:17;5.05;;;1.42;;
24859;SDS011;12936;52.006;4.350;2022-09-09T13:23:48;3.67;;;1.20;;
24859;SDS011;12936;52.006;4.350;2022-09-09T13:26:20;3.47;;;1.10;;
24859;SDS011;12936;52.006;4.350;2022-09-09T13:28:49;7.13;;;1.42;;
24859;SDS011;12936;52.006;4.350;2022-09-09T13:31:20;7.00;;;1.65;;
24859;SDS011;12936;52.006;4.350;2022-09-09T13:33:50;4.53;;;1.00;;
24859;SDS011;12936;52.006;4.350;2022-09-09T13:36:27;2.50;;;0.50;;
24859;SDS011;12936;52.006;4.350;2022-09-09T13:38:58;2.13;;;0.50;;
24859;SDS011;12936;52.006;4.350;2022-09-09T13:41:28;0.90;;;0.40;;
24859;SDS011;12936;52.006;4.350;2022-09-09T13:43:57;5.32;;;0.63;;
24859;SDS011;12936;52.006;4.350;2022-09-09T13:46:31;2.20;;;0.40;;
24859;SDS011;12936;52.006;4.350;2022-09-09T13:49:00;4.63;;;0.70;;
24859;SDS011;12936;52.006;4.350;2022-09-09T13:51:37;1.98;;;0.70;;
24859;SDS011;12936;52.006;4.350;2022-09-09T13:54:06;3.38;;;0.88;;
24859;SDS011;12936;52.006;4.350;2022-09-09T13:56:37;6.75;;;0.95;;
24859;SDS011;12936;52.006;4.350;2022-09-09T13:59:06;6.28;;;1.13;;
24859;SDS011;12936;52.006;4.350;2022-09-09T14:01:37;4.82;;;1.00;;
24859;SDS011;12936;52.006;4.350;2022-09-09T14:04:05;7.93;;;1.48;;
24859;SDS011;12936;52.006;4.350;2022-09-09T14:06:34;3.00;;;0.95;;
24859;SDS011;12936;52.006;4.350;2022-09-09T14:09:06;6.88;;;1.58;;
24859;SDS011;12936;52.006;4.350;2022-09-09T14:11:34;5.60;;;1.58;;
24859;SDS011;12936;52.006;4.350;2022-09-09T14:14:03;5.30;;;1.67;;
24859;SDS011;12936;52.006;4.350;2022-09-09T14:16:31;5.40;;;2.05;;
24859;SDS011;12936;52.006;4.350;2022-09-09T14:18:59;6.55;;;1.50;;
24859;SDS011;12936;52.006;4.350;2022-09-09T14:21:28;5.07;;;1.42;;
24859;SDS011;12936;52.006;4.350;2022-09-09T14:23:56;9.70;;;1.40;;
24859;SDS011;12936;52.006;4.350;2022-09-09T14:26:26;4.85;;;1.48;;
24859;SDS011;12936;52.006;4.350;2022-09-09T14:28:56;4.35;;;1.38;;
24859;SDS011;12936;52.006;4.350;2022-09-09T14:31:25;3.80;;;1.20;;
24859;SDS011;12936;52.006;4.350;2022-09-09T14:33:53;7.43;;;1.58;;
24859;SDS011;12936;52.006;4.350;2022-09-09T14:36:21;8.73;;;1.40;;
24859;SDS011;12936;52.006;4.350;2022-09-09T14:38:50;7.85;;;1.20;;
24859;SDS011;12936;52.006;4.350;2022-09-09T14:41:19;5.95;;;1.35;;
24859;SDS011;12936;52.006;4.350;2022-09-09T14:43:50;7.40;;;1.95;;
24859;SDS011;12936;52.006;4.350;2022-09-09T14:46:20;9.18;;;1.38;;
24859;SDS011;12936;52.006;4.350;2022-09-09T14:48:49;5.60;;;1.23;;
24859;SDS011;12936;52.006;4.350;2022-09-09T14:51:18;6.20;;;1.40;;
24859;SDS011;12936;52.006;4.350;2022-09-09T14:53:50;5.05;;;1.30;;
24859;SDS011;12936;52.006;4.350;2022-09-09T14:56:20;8.45;;;1.27;;
24859;SDS011;12936;52.006;4.350;2022-09-09T14:58:52;4.25;;;1.17;;
24859;SDS011;12936;52.006;4.350;2022-09-09T15:01:21;4.93;;;1.13;;
24859;SDS011;12936;52.006;4.350;2022-09-09T15:03:50;5.03;;;1.15;;
24859;SDS011;12936;52.006;4.350;2022-09-09T15:06:19;8.07;;;1.55;;
24859;SDS011;12936;52.006;4.350;2022-09-09T15:08:49;4.85;;;1.30;;
24859;SDS011;12936;52.006;4.350;2022-09-09T15:11:18;12.88;;;1.55;;
24859;SDS011;12936;52.006;4.350;2022-09-09T15:13:47;4.78;;;1.25;;